createdAt,value
2022-08-19T00:01:29.236Z,75.90
2022-08-19T00:04:02.040Z,75.90
2022-08-19T00:06:29.672Z,78.20
2022-08-19T00:08:56.841Z,79.20
2022-08-19T00:11:25.265Z,78.40
2022-08-19T00:13:53.515Z,76.20
2022-08-19T00:16:26.212Z,76.40
2022-08-19T00:18:57.232Z,76.00
2022-08-19T00:21:25.081Z,76.20
2022-08-19T00:23:52.002Z,77.60
2022-08-19T00:26:19.038Z,75.90
2022-08-19T00:28:45.970Z,76.80
2022-08-19T00:31:12.936Z,77.20
2022-08-19T00:33:39.903Z,76.70
2022-08-19T00:36:07.988Z,76.50
2022-08-19T00:38:37.648Z,76.30
2022-08-19T00:41:06.507Z,78.10
2022-08-19T00:43:33.610Z,78.20
2022-08-19T00:46:00.712Z,78.50
2022-08-19T00:48:27.674Z,79.30
2022-08-19T00:50:55.381Z,77.60
2022-08-19T00:53:25.555Z,79.30
2022-08-19T00:55:53.684Z,78.60
2022-08-19T00:58:21.615Z,78.70
2022-08-19T01:00:49.145Z,79.30
2022-08-19T01:03:19.286Z,78.80
2022-08-19T01:05:46.917Z,80.80
2022-08-19T01:08:14.811Z,79.50
2022-08-19T01:10:46.586Z,80.40
2022-08-19T01:13:21.855Z,82.90
2022-08-19T01:15:51.759Z,80.70
2022-08-19T01:18:19.350Z,81.20
2022-08-19T01:20:46.578Z,82.40
2022-08-19T01:23:14.009Z,83.70
2022-08-19T01:25:45.454Z,81.10
2022-08-19T01:28:33.887Z,83.00
2022-08-19T01:31:08.668Z,81.80
2022-08-19T01:33:35.705Z,80.80
2022-08-19T01:36:07.542Z,80.50
2022-08-19T01:38:37.375Z,83.60
2022-08-19T01:41:12.617Z,81.40
2022-08-19T01:44:09.687Z,80.80
2022-08-19T01:46:26.842Z,80.10
2022-08-19T01:48:53.816Z,80.10
2022-08-19T01:51:20.763Z,80.00
2022-08-19T01:53:51.189Z,80.00
2022-08-19T01:56:18.740Z,82.40
2022-08-19T01:58:54.998Z,81.10
2022-08-19T02:01:21.958Z,81.30
2022-08-19T02:03:48.999Z,80.60
2022-08-19T02:06:17.988Z,80.20
2022-08-19T02:08:47.174Z,80.70
2022-08-19T02:11:23.384Z,80.80
2022-08-19T02:13:50.670Z,82.10
2022-08-19T02:16:19.069Z,81.10
2022-08-19T02:18:48.135Z,80.90
2022-08-19T02:21:18.381Z,82.10
2022-08-19T02:23:45.410Z,80.80
2022-08-19T02:26:13.414Z,80.40
2022-08-19T02:28:41.123Z,80.50
2022-08-19T02:31:15.769Z,80.40
2022-08-19T02:33:42.906Z,80.80
2022-08-19T02:36:13.825Z,80.20
2022-08-19T02:38:42.743Z,81.70
2022-08-19T02:41:22.382Z,81.70
2022-08-19T02:44:22.337Z,81.30
2022-08-19T02:46:41.062Z,83.20
2022-08-19T02:49:08.340Z,80.40
2022-08-19T02:51:37.322Z,80.80
2022-08-19T02:54:05.145Z,81.20
2022-08-19T02:56:32.220Z,80.90
2022-08-19T02:58:59.449Z,80.60
2022-08-19T03:01:31.775Z,80.80
2022-08-19T03:04:00.412Z,81.40
2022-08-19T03:06:27.683Z,81.70
2022-08-19T03:08:54.935Z,81.60
2022-08-19T03:11:31.993Z,80.90
2022-08-19T03:13:59.163Z,83.30
2022-08-19T03:16:28.009Z,82.10
2022-08-19T03:18:55.069Z,81.70
2022-08-19T03:21:24.959Z,81.40
2022-08-19T03:23:54.863Z,81.70
2022-08-19T03:26:21.857Z,81.70
2022-08-19T03:28:51.639Z,82.00
2022-08-19T03:31:45.514Z,83.60
2022-08-19T03:34:13.646Z,82.30
2022-08-19T03:36:40.690Z,84.20
2022-08-19T03:39:09.533Z,82.90
2022-08-19T03:41:45.487Z,82.00
2022-08-19T03:44:19.246Z,83.00
2022-08-19T03:46:54.534Z,82.70
2022-08-19T03:49:21.562Z,84.60
2022-08-19T03:51:54.472Z,84.20
2022-08-19T03:54:23.972Z,84.90
2022-08-19T03:56:52.642Z,86.50
2022-08-19T03:59:22.470Z,86.70
2022-08-19T04:01:49.413Z,89.90
2022-08-19T04:04:16.403Z,87.30
2022-08-19T04:06:43.691Z,87.90
2022-08-19T04:09:11.530Z,88.50
2022-08-19T04:11:44.512Z,88.20
2022-08-19T04:14:17.764Z,89.20
2022-08-19T04:16:47.784Z,89.50
2022-08-19T04:19:15.145Z,90.00
2022-08-19T04:21:43.734Z,89.10
2022-08-19T04:24:10.771Z,89.10
2022-08-19T04:26:38.442Z,90.30
2022-08-19T04:29:12.738Z,90.10
2022-08-19T04:31:40.306Z,89.60
2022-08-19T04:34:08.345Z,88.70
2022-08-19T04:36:36.641Z,88.30
2022-08-19T04:39:06.363Z,88.60
2022-08-19T04:41:51.895Z,90.20
2022-08-19T04:44:19.188Z,90.00
2022-08-19T04:46:51.438Z,89.30
2022-08-19T04:49:21.175Z,89.00
2022-08-19T04:51:51.217Z,90.20
2022-08-19T04:54:23.957Z,90.10
2022-08-19T04:57:07.776Z,91.10
2022-08-19T04:59:36.023Z,90.80
2022-08-19T05:02:03.391Z,90.20
2022-08-19T05:04:31.997Z,90.70
2022-08-19T05:07:00.751Z,90.30
2022-08-19T05:09:28.556Z,90.40
2022-08-19T05:12:15.610Z,89.70
2022-08-19T05:14:42.559Z,90.40
2022-08-19T05:17:26.649Z,90.20
2022-08-19T05:20:13.914Z,90.30
2022-08-19T05:22:41.281Z,90.20
2022-08-19T05:25:20.286Z,90.20
2022-08-19T05:27:47.535Z,91.10
2022-08-19T05:30:14.730Z,90.20
2022-08-19T05:32:41.942Z,90.40
2022-08-19T05:35:09.393Z,90.40
2022-08-19T05:37:36.450Z,90.50
2022-08-19T05:40:04.181Z,90.30
2022-08-19T05:42:31.694Z,90.40
2022-08-19T05:44:58.662Z,90.70
2022-08-19T05:47:25.663Z,91.10
2022-08-19T05:49:52.608Z,90.40
2022-08-19T05:52:25.817Z,90.40
2022-08-19T05:54:56.135Z,90.30
2022-08-19T05:57:23.833Z,90.30
2022-08-19T05:59:53.131Z,90.30
2022-08-19T06:02:31.907Z,90.30
2022-08-19T06:04:59.159Z,90.10
2022-08-19T06:07:26.199Z,89.00
2022-08-19T06:09:59.139Z,88.10
2022-08-19T06:12:32.775Z,87.90
2022-08-19T06:15:01.834Z,87.50
2022-08-19T06:17:31.820Z,85.40
2022-08-19T06:19:59.773Z,84.40
2022-08-19T06:22:27.052Z,83.10
2022-08-19T06:24:55.079Z,82.20
2022-08-19T06:27:22.489Z,82.00
2022-08-19T06:29:49.630Z,81.60
2022-08-19T06:32:17.434Z,81.40
2022-08-19T06:34:44.899Z,80.00
2022-08-19T06:37:12.255Z,80.00
2022-08-19T06:39:40.471Z,78.70
2022-08-19T06:42:10.294Z,78.50
2022-08-19T06:44:42.504Z,79.40
2022-08-19T06:47:14.714Z,77.30
2022-08-19T06:49:50.480Z,78.20
2022-08-19T06:52:18.076Z,79.40
2022-08-19T06:54:55.754Z,78.00
2022-08-19T06:57:27.365Z,76.90
2022-08-19T06:59:54.403Z,75.90
2022-08-19T07:02:21.839Z,75.80
2022-08-19T07:04:52.626Z,75.10
2022-08-19T07:07:21.900Z,75.10
2022-08-19T07:09:57.980Z,76.20
2022-08-19T07:12:28.196Z,76.10
2022-08-19T07:14:58.427Z,73.70
2022-08-19T07:17:25.474Z,75.70
2022-08-19T07:19:54.464Z,73.90
2022-08-19T07:22:23.859Z,73.00
2022-08-19T07:24:52.392Z,74.60
2022-08-19T07:27:24.283Z,74.90
2022-08-19T07:29:57.154Z,75.30
2022-08-19T07:32:27.417Z,74.00
2022-08-19T07:34:54.580Z,74.80
2022-08-19T07:37:21.574Z,75.00
2022-08-19T07:39:48.673Z,75.10
2022-08-19T07:42:15.829Z,74.70
2022-08-19T07:44:48.295Z,74.70
2022-08-19T07:47:47.504Z,73.50
2022-08-19T07:50:09.043Z,71.60
2022-08-19T07:52:37.311Z,73.10
2022-08-19T07:55:05.798Z,73.40
2022-08-19T07:57:32.826Z,69.90
2022-08-19T08:00:00.267Z,64.40
2022-08-19T08:02:27.455Z,66.20
2022-08-19T08:05:13.033Z,61.40
2022-08-19T08:07:58.971Z,65.10
2022-08-19T08:10:26.749Z,60.90
2022-08-19T08:13:09.608Z,62.10
2022-08-19T08:15:42.637Z,63.60
2022-08-19T08:18:11.010Z,61.20
2022-08-19T08:20:38.074Z,63.90
2022-08-19T08:23:23.546Z,63.90
2022-08-19T08:25:50.679Z,61.30
2022-08-19T08:28:18.383Z,62.70
2022-08-19T08:30:48.961Z,60.30
2022-08-19T08:33:30.225Z,57.10
2022-08-19T08:36:00.457Z,59.10
2022-08-19T08:38:28.226Z,56.40
2022-08-19T08:41:07.471Z,60.80
2022-08-19T08:43:38.655Z,61.20
2022-08-19T08:46:12.197Z,59.30
2022-08-19T08:48:48.072Z,57.10
2022-08-19T08:51:29.920Z,60.10
2022-08-19T08:54:01.514Z,55.80
2022-08-19T08:56:28.569Z,58.50
2022-08-19T08:59:13.406Z,58.50
2022-08-19T09:01:40.653Z,54.30
2022-08-19T09:04:07.976Z,59.10
2022-08-19T09:07:18.648Z,58.00
2022-08-19T09:10:26.170Z,55.70
2022-08-19T09:13:18.674Z,56.30
2022-08-19T09:15:49.452Z,57.60
2022-08-19T09:18:19.515Z,57.60
2022-08-19T09:20:48.481Z,57.70
2022-08-19T09:23:15.692Z,51.60
2022-08-19T09:25:42.901Z,54.40
2022-08-19T09:28:22.013Z,53.60
2022-08-19T09:30:49.942Z,53.90
2022-08-19T09:33:20.977Z,46.50
2022-08-19T09:35:53.765Z,51.30
2022-08-19T09:38:22.021Z,46.60
2022-08-19T09:40:50.206Z,49.10
2022-08-19T09:43:32.826Z,48.30
2022-08-19T09:46:01.733Z,47.40
2022-08-19T09:48:28.739Z,48.60
2022-08-19T09:50:55.762Z,47.90
2022-08-19T09:53:25.243Z,46.50
2022-08-19T09:55:53.229Z,45.30
2022-08-19T09:58:24.672Z,47.40
2022-08-19T10:00:54.822Z,45.80
2022-08-19T10:03:21.941Z,46.40
2022-08-19T10:05:55.089Z,44.70
2022-08-19T10:08:28.719Z,48.30
2022-08-19T10:10:56.124Z,45.40
2022-08-19T10:13:26.019Z,46.00
2022-08-19T10:15:53.947Z,44.70
2022-08-19T10:18:22.996Z,43.20
2022-08-19T10:20:51.794Z,46.30
2022-08-19T10:23:21.187Z,46.70
2022-08-19T10:25:49.298Z,45.70
2022-08-19T10:28:19.160Z,47.50
2022-08-19T10:30:47.043Z,47.20
2022-08-19T10:33:15.054Z,48.20
2022-08-19T10:35:56.369Z,46.00
2022-08-19T10:38:32.396Z,48.40
2022-08-19T10:41:14.315Z,46.40
2022-08-19T10:43:42.014Z,45.90
2022-08-19T10:46:13.834Z,47.60
2022-08-19T10:48:42.289Z,48.10
2022-08-19T10:51:28.279Z,48.20
2022-08-19T10:53:56.561Z,49.50
2022-08-19T10:56:42.082Z,48.90
2022-08-19T10:59:09.115Z,47.90
2022-08-19T11:01:36.329Z,48.10
2022-08-19T11:04:03.985Z,48.70
2022-08-19T11:06:32.755Z,50.00
2022-08-19T11:09:01.012Z,49.30
2022-08-19T11:11:29.494Z,49.60
2022-08-19T11:13:56.508Z,50.10
2022-08-19T11:16:24.823Z,50.20
2022-08-19T11:18:54.523Z,52.60
2022-08-19T11:21:26.456Z,51.30
2022-08-19T11:23:56.438Z,52.60
2022-08-19T11:26:23.834Z,52.00
2022-08-19T11:28:54.332Z,50.60
2022-08-19T11:31:23.931Z,49.20
2022-08-19T11:33:58.251Z,49.00
2022-08-19T11:36:25.352Z,47.70
2022-08-19T11:38:52.423Z,48.70
2022-08-19T11:41:20.286Z,46.40
2022-08-19T11:43:47.412Z,46.40
2022-08-19T11:46:15.407Z,47.10
2022-08-19T11:48:42.375Z,46.00
2022-08-19T11:51:18.380Z,46.20
2022-08-19T11:53:45.607Z,44.60
2022-08-19T11:56:12.730Z,46.40
2022-08-19T11:58:40.235Z,47.00
2022-08-19T12:01:12.289Z,47.10
2022-08-19T12:03:39.694Z,46.40
2022-08-19T12:06:07.814Z,43.80
2022-08-19T12:08:34.825Z,42.60
2022-08-19T12:11:02.464Z,43.70
2022-08-19T12:13:31.313Z,42.90
2022-08-19T12:15:59.302Z,43.00
2022-08-19T12:18:26.340Z,42.70
2022-08-19T12:20:54.107Z,41.40
2022-08-19T12:23:21.214Z,40.00
2022-08-19T12:25:51.155Z,37.30
2022-08-19T12:28:21.783Z,40.80
2022-08-19T12:30:49.562Z,37.50
2022-08-19T12:33:16.485Z,38.50
2022-08-19T12:35:45.794Z,38.30
2022-08-19T12:38:13.520Z,36.10
2022-08-19T12:40:43.285Z,38.50
2022-08-19T12:43:10.891Z,36.00
2022-08-19T12:45:38.666Z,38.70
2022-08-19T12:48:33.310Z,38.00
2022-08-19T12:50:55.263Z,35.20
2022-08-19T12:53:22.279Z,38.60
2022-08-19T12:55:49.287Z,37.70
2022-08-19T12:58:16.236Z,34.90
2022-08-19T13:00:43.237Z,34.30
2022-08-19T13:03:10.258Z,33.20
2022-08-19T13:05:37.767Z,33.30
2022-08-19T13:08:04.767Z,33.30
2022-08-19T13:10:36.469Z,33.60
2022-08-19T13:13:06.770Z,32.00
2022-08-19T13:15:41.222Z,31.10
2022-08-19T13:18:09.967Z,28.00
2022-08-19T13:20:37.522Z,31.00
2022-08-19T13:23:05.154Z,32.90
2022-08-19T13:25:32.165Z,28.80
2022-08-19T13:27:59.129Z,30.00
2022-08-19T13:30:44.608Z,31.00
2022-08-19T13:33:11.682Z,32.20
2022-08-19T13:35:58.031Z,30.50
2022-08-19T13:38:25.414Z,29.50
2022-08-19T13:40:53.605Z,33.10
2022-08-19T13:43:23.773Z,30.80
2022-08-19T13:45:56.461Z,30.40
2022-08-19T13:48:24.642Z,30.70
2022-08-19T13:50:51.592Z,29.60
2022-08-19T13:53:18.656Z,32.20
2022-08-19T13:55:45.638Z,29.70
2022-08-19T13:58:12.935Z,30.80
2022-08-19T14:00:41.900Z,31.00
2022-08-19T14:03:09.510Z,31.10
2022-08-19T14:05:36.570Z,30.30
2022-08-19T14:08:03.940Z,30.10
2022-08-19T14:10:32.599Z,29.30
2022-08-19T14:13:00.868Z,32.00
2022-08-19T14:15:28.242Z,29.00
2022-08-19T14:17:55.518Z,29.30
2022-08-19T14:20:26.030Z,29.40
2022-08-19T14:22:53.959Z,30.00
2022-08-19T14:25:23.687Z,28.50
2022-08-19T14:27:50.724Z,27.70
2022-08-19T14:30:21.119Z,28.40
2022-08-19T14:32:48.122Z,28.20
2022-08-19T14:35:15.968Z,28.90
2022-08-19T14:37:45.814Z,28.30
2022-08-19T14:40:14.693Z,27.60
2022-08-19T14:42:42.371Z,27.30
2022-08-19T14:45:10.422Z,29.50
2022-08-19T14:47:39.760Z,28.20
2022-08-19T14:50:18.578Z,26.80
2022-08-19T14:52:47.466Z,26.50
2022-08-19T14:55:16.070Z,26.90
2022-08-19T14:57:43.989Z,28.10
2022-08-19T15:00:14.481Z,28.00
2022-08-19T15:02:42.680Z,27.30
2022-08-19T15:05:12.131Z,25.90
2022-08-19T15:07:39.395Z,26.80
2022-08-19T15:10:10.636Z,25.10
2022-08-19T15:12:39.510Z,26.60
2022-08-19T15:15:07.790Z,25.40
2022-08-19T15:17:45.409Z,24.00
2022-08-19T15:20:15.618Z,25.30
2022-08-19T15:22:43.269Z,26.60
2022-08-19T15:25:11.752Z,26.60
2022-08-19T15:27:40.069Z,26.10
2022-08-19T15:30:09.392Z,25.40
2022-08-19T15:32:36.935Z,24.70
2022-08-19T15:35:05.597Z,23.30
2022-08-19T15:37:32.630Z,26.20
2022-08-19T15:40:05.666Z,24.90
2022-08-19T15:42:33.080Z,24.30
2022-08-19T15:45:00.636Z,25.70
2022-08-19T15:47:34.537Z,24.50
2022-08-19T15:50:10.655Z,25.90
2022-08-19T15:52:48.440Z,24.70
2022-08-19T15:55:33.194Z,27.10
2022-08-19T15:58:28.523Z,25.90
2022-08-19T16:01:20.499Z,24.70
2022-08-19T16:04:11.015Z,25.20
2022-08-19T16:06:42.484Z,25.90
2022-08-19T16:09:09.634Z,27.20
2022-08-19T16:11:39.291Z,25.80
2022-08-19T16:14:08.542Z,27.30
2022-08-19T16:16:36.052Z,27.30
2022-08-19T16:19:06.315Z,25.60
2022-08-19T16:21:41.499Z,25.30
2022-08-19T16:24:10.379Z,25.90
2022-08-19T16:26:37.558Z,26.30
2022-08-19T16:29:08.721Z,26.20
2022-08-19T16:31:36.688Z,27.00
2022-08-19T16:34:04.246Z,26.80
2022-08-19T16:36:31.380Z,27.00
2022-08-19T16:38:58.638Z,26.90
2022-08-19T16:41:25.672Z,28.00
2022-08-19T16:43:53.556Z,26.80
2022-08-19T16:46:22.697Z,27.90
2022-08-19T16:48:49.810Z,26.90
2022-08-19T16:51:16.947Z,26.80
2022-08-19T16:53:45.149Z,26.80
2022-08-19T16:56:12.307Z,27.90
2022-08-19T16:58:39.406Z,27.40
2022-08-19T17:01:07.996Z,27.70
2022-08-19T17:03:35.726Z,27.50
2022-08-19T17:06:04.760Z,27.20
2022-08-19T17:08:48.085Z,27.50
2022-08-19T17:11:18.465Z,28.00
2022-08-19T17:13:47.589Z,26.50
2022-08-19T17:16:15.123Z,28.10
2022-08-19T17:18:42.108Z,26.60
2022-08-19T17:21:09.066Z,26.50
2022-08-19T17:23:42.194Z,27.40
2022-08-19T17:26:17.193Z,27.10
2022-08-19T17:28:48.062Z,27.70
2022-08-19T17:31:15.427Z,28.00
2022-08-19T17:33:42.437Z,27.60
2022-08-19T17:36:18.995Z,27.70
2022-08-19T17:38:46.091Z,27.90
2022-08-19T17:41:13.341Z,28.20
2022-08-19T17:43:43.603Z,28.70
2022-08-19T17:46:13.413Z,27.70
2022-08-19T17:48:51.731Z,27.70
2022-08-19T17:51:32.590Z,28.00
2022-08-19T17:53:59.573Z,27.70
2022-08-19T17:56:28.835Z,28.90
2022-08-19T17:59:00.075Z,28.40
2022-08-19T18:01:28.798Z,29.70
2022-08-19T18:04:07.442Z,28.70
2022-08-19T18:06:36.706Z,28.90
2022-08-19T18:09:06.827Z,28.70
2022-08-19T18:11:34.060Z,28.90
2022-08-19T18:14:01.103Z,29.20
2022-08-19T18:16:29.389Z,29.40
2022-08-19T18:18:56.510Z,29.70
2022-08-19T18:21:30.856Z,29.70
2022-08-19T18:24:01.785Z,29.80
2022-08-19T18:26:30.292Z,29.50
2022-08-19T18:28:57.382Z,30.00
2022-08-19T18:31:24.362Z,30.10
2022-08-19T18:33:52.722Z,30.20
2022-08-19T18:36:37.479Z,30.50
2022-08-19T18:39:25.640Z,30.40
2022-08-19T18:42:15.444Z,30.50
2022-08-19T18:45:00.761Z,30.70
2022-08-19T18:47:46.033Z,30.80
2022-08-19T18:50:13.896Z,30.70
2022-08-19T18:52:41.010Z,30.70
2022-08-19T18:55:08.362Z,30.80
2022-08-19T18:57:35.359Z,31.10
2022-08-19T19:00:04.459Z,31.10
2022-08-19T19:02:36.183Z,31.40
2022-08-19T19:05:06.995Z,31.40
2022-08-19T19:07:34.730Z,31.60
2022-08-19T19:10:01.865Z,31.60
2022-08-19T19:12:29.488Z,32.00
2022-08-19T19:14:58.550Z,32.00
2022-08-19T19:17:28.690Z,32.10
2022-08-19T19:19:55.744Z,32.40
2022-08-19T19:22:23.087Z,32.40
2022-08-19T19:24:50.870Z,32.50
2022-08-19T19:27:18.652Z,32.60
2022-08-19T19:29:51.119Z,32.90
2022-08-19T19:32:21.626Z,32.80
2022-08-19T19:34:48.520Z,33.30
2022-08-19T19:37:16.458Z,34.20
2022-08-19T19:39:45.859Z,33.40
2022-08-19T19:42:19.970Z,33.70
2022-08-19T19:44:48.931Z,33.80
2022-08-19T19:47:17.577Z,33.50
2022-08-19T19:50:10.569Z,33.70
2022-08-19T19:52:32.844Z,34.10
2022-08-19T19:55:00.201Z,34.10
2022-08-19T19:57:27.172Z,34.20
2022-08-19T19:59:54.356Z,34.50
2022-08-19T20:02:22.132Z,34.60
2022-08-19T20:04:51.278Z,35.10
2022-08-19T20:07:18.219Z,35.40
2022-08-19T20:09:59.264Z,35.30
2022-08-19T20:12:27.249Z,36.30
2022-08-19T20:14:54.183Z,35.20
2022-08-19T20:17:21.146Z,35.10
2022-08-19T20:19:48.135Z,35.10
2022-08-19T20:22:15.662Z,35.10
2022-08-19T20:24:42.795Z,35.10
2022-08-19T20:27:10.655Z,35.10
2022-08-19T20:29:41.616Z,35.10
2022-08-19T20:32:11.462Z,35.10
2022-08-19T20:34:39.604Z,35.00
2022-08-19T20:37:09.471Z,35.00
2022-08-19T20:39:37.247Z,35.10
2022-08-19T20:42:04.397Z,36.10
2022-08-19T20:44:31.375Z,35.30
2022-08-19T20:47:02.969Z,35.70
2022-08-19T20:49:30.666Z,36.00
2022-08-19T20:51:58.496Z,35.90
2022-08-19T20:54:26.022Z,36.10
2022-08-19T20:56:53.244Z,36.10
2022-08-19T20:59:20.622Z,36.20
2022-08-19T21:01:48.357Z,36.20
2022-08-19T21:04:15.469Z,36.30
2022-08-19T21:06:45.519Z,36.40
2022-08-19T21:09:13.663Z,36.90
2022-08-19T21:11:40.690Z,36.70
2022-08-19T21:14:07.815Z,36.60
2022-08-19T21:16:34.789Z,36.80
2022-08-19T21:19:01.819Z,36.70
2022-08-19T21:21:28.818Z,36.80
2022-08-19T21:23:55.827Z,37.20
2022-08-19T21:26:22.828Z,37.50
2022-08-19T21:28:49.885Z,37.20
2022-08-19T21:31:18.045Z,37.20
2022-08-19T21:33:45.126Z,37.50
2022-08-19T21:36:12.136Z,37.60
2022-08-19T21:38:39.611Z,37.70
2022-08-19T21:41:06.783Z,37.80
2022-08-19T21:43:35.023Z,38.10
2022-08-19T21:46:02.087Z,38.10
2022-08-19T21:48:29.063Z,38.30
2022-08-19T21:50:55.993Z,38.80
2022-08-19T21:53:23.151Z,39.10
2022-08-19T21:55:53.468Z,39.50
2022-08-19T21:58:28.317Z,38.80
2022-08-19T22:00:58.449Z,40.00
2022-08-19T22:03:25.967Z,39.50
2022-08-19T22:05:52.993Z,39.40
2022-08-19T22:08:19.912Z,39.40
2022-08-19T22:10:46.915Z,39.60
2022-08-19T22:13:14.641Z,39.70
2022-08-19T22:15:42.560Z,40.60
2022-08-19T22:18:10.426Z,40.00
2022-08-19T22:20:37.368Z,40.60
2022-08-19T22:23:05.718Z,40.70
2022-08-19T22:25:40.718Z,41.10
2022-08-19T22:28:12.136Z,42.50
2022-08-19T22:30:41.695Z,41.80
2022-08-19T22:33:12.555Z,41.30
2022-08-19T22:35:40.582Z,42.10
2022-08-19T22:38:07.866Z,41.40
2022-08-19T22:40:36.963Z,41.90
2022-08-19T22:43:06.780Z,42.30
2022-08-19T22:45:34.140Z,42.60
2022-08-19T22:48:01.071Z,42.00
2022-08-19T22:50:28.010Z,42.00
2022-08-19T22:52:58.609Z,42.40
2022-08-19T22:55:26.451Z,44.60
2022-08-19T22:57:53.585Z,42.60
2022-08-19T23:00:21.903Z,42.30
2022-08-19T23:02:52.246Z,42.80
2022-08-19T23:05:22.039Z,44.10
2022-08-19T23:07:52.076Z,44.30
2022-08-19T23:10:26.876Z,45.20
2022-08-19T23:12:55.383Z,43.50
2022-08-19T23:15:26.252Z,43.60
2022-08-19T23:17:54.362Z,44.10
2022-08-19T23:20:21.670Z,44.50
2022-08-19T23:22:49.800Z,44.00
2022-08-19T23:25:19.426Z,44.30
2022-08-19T23:28:05.066Z,44.90
2022-08-19T23:30:33.002Z,43.80
2022-08-19T23:33:12.713Z,44.10
2022-08-19T23:35:41.177Z,44.90
2022-08-19T23:38:08.541Z,44.70
2022-08-19T23:40:36.155Z,44.70
2022-08-19T23:43:07.936Z,44.80
2022-08-19T23:45:38.228Z,44.60
2022-08-19T23:48:10.166Z,44.70
2022-08-19T23:50:38.279Z,46.10
2022-08-19T23:53:05.216Z,45.50
2022-08-19T23:55:33.659Z,45.30
2022-08-19T23:58:00.932Z,45.90
